Highland, Illinois
Current Conditions -  °F | °C
As of 11:58 AM on Monday 24 Nov 2014 (Local Time) from KBLV Reporting Station
Overcast Overcast  
Wind Chill: 31°   Ceiling: 3500
Heat Index: 41°   Visibility: 10mi
Dew Point: 31°   Wind: 21mph
Humidity: 67%   Direction: 250°WSW
Pressure: 29.69"   Gusts: 24mph
Location:  38.74°N, 89.68°W
Report Text: KBLV 241758Z AUTO 25018G21KT 10SM OVC035 05/M01 A2969 RMK AO2 PK WND 27032/41 SLP058 T00491008 10051 20033 52028
Loading
Personal Weather Stations






























Interactive Weather Map New forecast layout! Learn more

10-Day Weather Forecast

Advertisements
Track Severe Weather on mobile